Hauptseite
METAR-TAF:

METAR-TAF

Flughäfen :

Flughafen Cork

Cork, Irland

Breite: 51-51N, Länge: 008-29W, Höhe: 153 m

Beobachtung

Neuester Wetterbericht von vor 17 Minuten, um 13:30 UTC
Wind 9 kt aus Ost/Südost, variierte zwischen Ost und Süd/Südost
Temperatur 19°C
Luftfeuchtigkeit 68%
Luftdruck 1036 hPa
Sichtweite 10 km oder mehr
Leicht bewölkt in der Höhe von 2500 ft

METAR: EICK 271330Z 12009KT 080V160 9999 FEW025 19/13 Q1036 NOSIG

Zeit: 14:47 (13:47 UTC)

Prognose

Neuester Wetterbericht von vor 2 Stunden und 38 Minuten, um 11:09 UTC
Gültige Prognose vom 27 um 12 UTC bis 28 um 12 UTC
Wind 10 kt aus Südost
Sichtweite 10 km oder mehr
Leicht bewölkt in der Höhe von 2000 ft
Übergehend zu
vom 27 um 21 UTC bis 27 um 23 UTC
Wind 5 kt aus Ost/Nordost
Übergehend zu
vom 28 um 06 UTC bis 28 um 08 UTC
Wind 10 kt aus Ost/Südost

TAF: EICK 271109Z 2712/2812 13010KT 9999 FEW020 BECMG 2721/2723 07005KT BECMG 2806/2808 12010KT

Wetterbeobachtungen und Prognosen von mehr als 4000 Flughäfen (METAR und TAF Bericht).

Die verfügbaren Stationen werden durch gelbe und rote Markierungen auf der Karte dargestellt.

Führen Sie die Maus auf sie, um den Namen der Station zu sehen.

Darauf klicken, um die Beobachtung von Wetterbeobachtungen und Prognosen zu sehen.

Um die Karte zu ändern : klicken Sie auf den grünen Tasten mit einem schwarzen Kreuz Zum Vergrößern, auf den grünen Button mit einem Gedankenstrich zu verkleinern, oder auf die grünen Pfeile für benachbarte Karten.


METAR-TAF: